createdAt,value
2019-03-21T00:00:49.213Z,5.38
2019-03-21T00:03:16.432Z,5.40
2019-03-21T00:05:44.837Z,5.32
2019-03-21T00:08:13.264Z,5.36
2019-03-21T00:10:47.171Z,5.43
2019-03-21T00:13:15.582Z,5.51
2019-03-21T00:15:50.053Z,5.40
2019-03-21T00:18:18.455Z,5.30
2019-03-21T00:20:46.936Z,5.03
2019-03-21T00:23:15.339Z,4.89
2019-03-21T00:25:43.822Z,5.00
2019-03-21T00:28:12.323Z,5.08
2019-03-21T00:30:40.801Z,5.09
2019-03-21T00:33:09.185Z,5.21
2019-03-21T00:35:38.683Z,5.30
2019-03-21T00:38:07.195Z,5.28
2019-03-21T00:40:43.865Z,5.19
2019-03-21T00:43:12.877Z,5.05
2019-03-21T00:45:41.315Z,4.92
2019-03-21T00:48:16.247Z,4.76
2019-03-21T00:50:44.652Z,4.78
2019-03-21T00:53:13.158Z,4.69
2019-03-21T00:55:44.910Z,4.64
2019-03-21T00:58:13.315Z,4.59
2019-03-21T01:00:44.864Z,4.65
2019-03-21T01:03:14.045Z,4.72
2019-03-21T01:05:42.884Z,4.70
2019-03-21T01:08:11.363Z,4.57
2019-03-21T01:10:39.790Z,4.70
2019-03-21T01:13:08.200Z,4.78
2019-03-21T01:15:36.616Z,4.88
2019-03-21T01:18:05.282Z,4.89
2019-03-21T01:20:33.693Z,4.84
2019-03-21T01:23:02.489Z,4.78
2019-03-21T01:25:37.226Z,4.65
2019-03-21T01:28:05.722Z,4.44
2019-03-21T01:30:34.114Z,4.49
2019-03-21T01:33:02.521Z,4.43
2019-03-21T01:35:30.948Z,4.48
2019-03-21T01:37:59.340Z,4.49
2019-03-21T01:40:46.015Z,4.48
2019-03-21T01:43:14.486Z,4.52
2019-03-21T01:45:42.881Z,4.43
2019-03-21T01:48:11.531Z,4.44
2019-03-21T01:50:41.083Z,4.48
2019-03-21T01:53:09.498Z,4.49
2019-03-21T01:55:37.911Z,4.56
2019-03-21T01:58:06.587Z,4.53
2019-03-21T02:00:40.208Z,4.48
2019-03-21T02:03:08.602Z,4.57
2019-03-21T02:05:37.026Z,4.59
2019-03-21T02:08:05.674Z,4.44
2019-03-21T02:10:34.721Z,4.43
2019-03-21T02:13:03.188Z,4.40
2019-03-21T02:15:31.664Z,4.29
2019-03-21T02:18:00.066Z,4.20
2019-03-21T02:20:28.882Z,4.26
2019-03-21T02:22:57.363Z,4.25
2019-03-21T02:25:28.625Z,4.20
2019-03-21T02:27:57.070Z,4.19
2019-03-21T02:33:46.495Z,4.21
2019-03-21T02:36:14.905Z,4.13
2019-03-21T02:38:43.346Z,4.26
2019-03-21T02:41:16.509Z,4.36
2019-03-21T02:43:44.939Z,4.40
2019-03-21T02:46:13.416Z,4.34
2019-03-21T02:48:41.823Z,4.08
2019-03-21T02:51:10.275Z,4.05
2019-03-21T02:53:38.644Z,4.03
2019-03-21T02:56:10.409Z,4.05
2019-03-21T02:58:38.830Z,4.03
2019-03-21T03:01:07.238Z,4.11
2019-03-21T03:03:35.644Z,4.16
2019-03-21T03:06:04.181Z,4.19
2019-03-21T03:08:32.641Z,4.25
2019-03-21T03:11:13.150Z,4.29
2019-03-21T03:13:44.025Z,4.14
2019-03-21T03:16:12.424Z,4.08
2019-03-21T03:18:40.924Z,4.06
2019-03-21T03:21:09.322Z,3.99
2019-03-21T03:23:37.747Z,3.96
2019-03-21T03:26:06.175Z,3.96
2019-03-21T03:28:37.653Z,3.97
2019-03-21T03:31:06.063Z,3.95
2019-03-21T03:33:34.461Z,3.95
2019-03-21T03:36:02.941Z,3.90
2019-03-21T03:38:31.396Z,3.89
2019-03-21T03:41:04.895Z,3.98
2019-03-21T03:43:33.522Z,4.03
2019-03-21T03:46:01.985Z,4.02
2019-03-21T03:48:30.660Z,3.97
2019-03-21T03:50:59.058Z,3.97
2019-03-21T03:53:27.466Z,3.93
2019-03-21T03:55:55.968Z,3.92
2019-03-21T03:58:25.806Z,3.89
2019-03-21T04:00:54.270Z,3.77
2019-03-21T04:03:22.843Z,3.61
2019-03-21T04:05:51.265Z,3.54
2019-03-21T04:08:19.650Z,3.59
2019-03-21T04:10:50.442Z,3.59
2019-03-21T04:13:18.850Z,3.50
2019-03-21T04:15:53.394Z,3.57
2019-03-21T04:18:19.709Z,3.66
2019-03-21T04:20:59.878Z,3.73
2019-03-21T04:23:28.301Z,3.81
2019-03-21T04:26:06.029Z,3.84
2019-03-21T04:28:34.670Z,3.84
2019-03-21T04:31:03.143Z,3.85
2019-03-21T04:33:31.530Z,3.80
2019-03-21T04:35:59.936Z,3.71
2019-03-21T04:38:28.436Z,3.76
2019-03-21T04:40:56.845Z,3.80
2019-03-21T04:43:25.314Z,3.83
2019-03-21T04:46:02.971Z,3.85
2019-03-21T04:48:23.870Z,3.83
2019-03-21T04:50:52.309Z,3.56
2019-03-21T04:53:20.702Z,3.50
2019-03-21T04:55:49.114Z,3.45
2019-03-21T04:58:17.617Z,3.40
2019-03-21T05:00:57.241Z,3.39
2019-03-21T05:03:30.209Z,3.33
2019-03-21T05:05:58.605Z,3.42
2019-03-21T05:08:27.036Z,3.44
2019-03-21T05:10:55.508Z,3.50
2019-03-21T05:13:23.904Z,3.57
2019-03-21T05:15:53.857Z,3.63
2019-03-21T05:18:41.183Z,3.68
2019-03-21T05:21:12.651Z,3.63
2019-03-21T05:23:41.060Z,3.63
2019-03-21T05:26:09.471Z,3.68
2019-03-21T05:28:37.898Z,3.71
2019-03-21T05:31:24.601Z,3.70
2019-03-21T05:33:53.053Z,3.61
2019-03-21T05:36:21.459Z,3.53
2019-03-21T05:38:49.868Z,3.43
2019-03-21T05:41:18.302Z,3.45
2019-03-21T05:43:52.747Z,3.47
2019-03-21T05:46:26.513Z,3.48
2019-03-21T05:48:51.433Z,3.51
2019-03-21T05:51:19.828Z,3.44
2019-03-21T05:53:48.251Z,3.41
2019-03-21T05:56:16.673Z,3.39
2019-03-21T05:58:45.188Z,3.45
2019-03-21T06:01:14.100Z,3.42
2019-03-21T06:03:49.827Z,3.40
2019-03-21T06:06:21.286Z,3.40
2019-03-21T06:08:49.787Z,3.33
2019-03-21T06:11:18.163Z,3.30
2019-03-21T06:13:46.588Z,3.29
2019-03-21T06:16:14.995Z,3.37
2019-03-21T06:18:55.518Z,3.45
2019-03-21T06:21:26.972Z,3.47
2019-03-21T06:24:27.619Z,3.47
2019-03-21T06:27:13.970Z,3.44
2019-03-21T06:29:35.269Z,3.40
2019-03-21T06:32:03.856Z,3.43
2019-03-21T06:34:32.464Z,3.43
2019-03-21T06:37:00.884Z,3.49
2019-03-21T06:39:29.284Z,3.56
2019-03-21T06:41:57.702Z,3.60
2019-03-21T06:44:26.126Z,3.68
2019-03-21T06:46:54.562Z,3.72
2019-03-21T06:49:22.969Z,3.74
2019-03-21T06:51:51.406Z,3.75
2019-03-21T06:54:19.815Z,3.84
2019-03-21T06:56:48.252Z,3.70
2019-03-21T06:59:16.661Z,3.96
2019-03-21T07:01:45.081Z,4.00
2019-03-21T07:04:13.500Z,4.07
2019-03-21T07:06:41.992Z,4.13
2019-03-21T07:09:10.443Z,4.20
2019-03-21T07:11:38.864Z,4.27
2019-03-21T07:14:07.340Z,4.32
2019-03-21T07:16:35.891Z,4.39
2019-03-21T07:19:04.371Z,4.45
2019-03-21T07:21:32.893Z,4.51
2019-03-21T07:24:01.297Z,4.60
2019-03-21T07:26:29.711Z,4.69
2019-03-21T07:28:58.147Z,4.75
2019-03-21T07:31:26.558Z,4.79
2019-03-21T07:33:54.969Z,4.87
2019-03-21T07:36:26.085Z,4.91
2019-03-21T07:38:53.614Z,4.94
2019-03-21T07:41:22.041Z,4.96
2019-03-21T07:43:50.465Z,5.00
2019-03-21T07:46:18.871Z,5.04
2019-03-21T07:48:47.310Z,5.14
2019-03-21T07:51:15.772Z,5.24
2019-03-21T07:53:44.192Z,5.28
2019-03-21T07:56:12.642Z,5.35
2019-03-21T07:58:41.087Z,5.54
2019-03-21T08:01:09.704Z,5.64
2019-03-21T08:03:38.154Z,5.68
2019-03-21T08:06:06.582Z,5.75
2019-03-21T08:08:34.996Z,5.81
2019-03-21T08:11:03.497Z,5.89
2019-03-21T08:13:31.913Z,5.93
2019-03-21T08:16:00.435Z,5.93
2019-03-21T08:18:28.844Z,5.97
2019-03-21T08:20:59.930Z,6.04
2019-03-21T08:23:27.424Z,6.12
2019-03-21T08:25:55.834Z,6.20
2019-03-21T08:28:24.304Z,6.24
2019-03-21T08:31:07.760Z,6.28
2019-03-21T08:33:36.205Z,6.30
2019-03-21T08:36:04.790Z,6.39
2019-03-21T08:38:33.214Z,6.52
2019-03-21T08:41:01.651Z,6.58
2019-03-21T08:43:30.060Z,6.57
2019-03-21T08:45:58.473Z,6.54
2019-03-21T08:48:26.949Z,6.54
2019-03-21T08:50:55.374Z,6.56
2019-03-21T08:53:23.789Z,6.58
2019-03-21T08:55:52.194Z,6.75
2019-03-21T08:58:20.621Z,6.76
2019-03-21T09:00:49.072Z,6.79
2019-03-21T09:03:17.471Z,6.85
2019-03-21T09:05:45.968Z,7.01
2019-03-21T09:08:14.405Z,7.10
2019-03-21T09:10:42.891Z,7.14
2019-03-21T09:13:11.341Z,7.24
2019-03-21T09:15:39.768Z,7.46
2019-03-21T09:18:08.192Z,7.58
2019-03-21T09:20:36.612Z,7.48
2019-03-21T09:23:05.079Z,7.50
2019-03-21T09:25:33.502Z,7.48
2019-03-21T09:28:02.868Z,7.61
2019-03-21T09:30:31.592Z,7.58
2019-03-21T09:33:00.011Z,7.92
2019-03-21T09:35:28.517Z,8.19
2019-03-21T09:37:56.933Z,8.13
2019-03-21T09:40:25.347Z,8.12
2019-03-21T09:42:53.849Z,8.09
2019-03-21T09:45:22.400Z,8.10
2019-03-21T09:47:50.838Z,8.17
2019-03-21T09:50:27.823Z,8.36
2019-03-21T09:52:56.336Z,8.32
2019-03-21T09:55:25.294Z,8.44
2019-03-21T09:57:53.694Z,8.54
2019-03-21T10:00:36.999Z,8.61
2019-03-21T10:03:06.366Z,8.66
2019-03-21T10:05:34.844Z,8.67
2019-03-21T10:08:03.706Z,8.62
2019-03-21T10:10:33.448Z,8.59
2019-03-21T10:13:01.983Z,8.69
2019-03-21T10:15:30.469Z,8.69
2019-03-21T10:17:58.978Z,8.73
2019-03-21T10:20:27.422Z,8.85
2019-03-21T10:22:55.812Z,8.91
2019-03-21T10:25:26.525Z,8.92
2019-03-21T10:27:54.397Z,9.01
2019-03-21T10:30:34.529Z,9.08
2019-03-21T10:33:03.969Z,9.20
2019-03-21T10:35:32.723Z,9.34
2019-03-21T10:38:01.476Z,9.29
2019-03-21T10:40:29.911Z,9.56
2019-03-21T10:42:58.323Z,9.51
2019-03-21T10:45:26.770Z,9.45
2019-03-21T10:47:55.249Z,9.62
2019-03-21T10:50:35.341Z,9.53
2019-03-21T10:53:04.569Z,9.61
2019-03-21T10:55:32.995Z,9.64
2019-03-21T10:58:01.416Z,9.67
2019-03-21T11:00:29.940Z,9.77
2019-03-21T11:05:42.190Z,9.87
2019-03-21T11:08:10.762Z,9.89
2019-03-21T11:10:39.222Z,9.95
2019-03-21T11:13:07.738Z,10.13
2019-03-21T11:15:36.410Z,10.16
2019-03-21T11:18:05.055Z,10.23
2019-03-21T11:20:35.133Z,10.15
2019-03-21T11:23:04.593Z,9.98
2019-03-21T11:25:33.071Z,10.14
2019-03-21T11:28:01.563Z,10.12
2019-03-21T11:30:35.145Z,10.24
2019-03-21T11:33:04.226Z,10.38
2019-03-21T11:35:34.148Z,10.41
2019-03-21T11:38:02.749Z,10.41
2019-03-21T11:40:31.287Z,10.60
2019-03-21T11:42:59.956Z,10.54
2019-03-21T11:45:28.619Z,10.66
2019-03-21T11:47:59.652Z,10.56
2019-03-21T11:50:27.396Z,10.73
2019-03-21T11:52:55.827Z,11.04
2019-03-21T11:55:24.383Z,11.15
2019-03-21T11:57:52.872Z,11.29
2019-03-21T12:00:21.373Z,11.40
2019-03-21T12:02:49.778Z,11.23
2019-03-21T12:05:18.359Z,11.09
2019-03-21T12:07:46.850Z,10.82
2019-03-21T12:10:16.696Z,10.65
2019-03-21T12:12:45.132Z,10.75
2019-03-21T12:15:14.162Z,10.73
2019-03-21T12:17:42.591Z,10.86
2019-03-21T12:20:13.827Z,11.25
2019-03-21T12:22:42.246Z,11.41
2019-03-21T12:25:11.087Z,11.51
2019-03-21T12:27:39.515Z,11.65
2019-03-21T12:30:11.100Z,11.82
2019-03-21T12:32:39.536Z,11.80
2019-03-21T12:35:08.498Z,11.55
2019-03-21T12:37:36.914Z,11.42
2019-03-21T12:40:09.254Z,11.70
2019-03-21T12:42:37.671Z,11.66
2019-03-21T12:45:10.174Z,11.79
2019-03-21T12:47:38.657Z,11.84
2019-03-21T12:50:08.743Z,11.91
2019-03-21T12:52:41.589Z,12.46
2019-03-21T12:55:08.020Z,13.10
2019-03-21T12:57:36.519Z,13.69
2019-03-21T13:00:10.535Z,14.10
2019-03-21T13:02:39.070Z,14.26
2019-03-21T13:05:08.606Z,14.40
2019-03-21T13:07:37.176Z,14.72
2019-03-21T13:10:06.954Z,14.91
2019-03-21T13:12:35.421Z,15.27
2019-03-21T13:15:05.773Z,15.50
2019-03-21T13:17:34.186Z,15.69
2019-03-21T13:20:02.690Z,15.89
2019-03-21T13:22:31.102Z,15.84
2019-03-21T13:24:59.526Z,15.95
2019-03-21T13:27:27.927Z,15.95
2019-03-21T13:29:56.473Z,16.18
2019-03-21T13:32:24.940Z,16.29
2019-03-21T13:34:53.437Z,16.33
2019-03-21T13:37:21.852Z,16.22
2019-03-21T13:39:50.246Z,16.14
2019-03-21T13:42:18.689Z,16.37
2019-03-21T13:44:47.105Z,16.41
2019-03-21T13:47:15.608Z,16.47
2019-03-21T13:49:44.113Z,16.77
2019-03-21T13:52:12.526Z,16.80
2019-03-21T13:54:41.654Z,16.87
2019-03-21T13:57:10.129Z,16.96
2019-03-21T13:59:38.766Z,17.03
2019-03-21T14:02:07.218Z,16.95
2019-03-21T14:04:35.639Z,16.93
2019-03-21T14:07:04.121Z,16.94
2019-03-21T14:09:32.616Z,17.10
2019-03-21T14:12:01.038Z,17.18
2019-03-21T14:14:29.477Z,17.28
2019-03-21T14:16:57.949Z,17.04
2019-03-21T14:19:26.391Z,16.98
2019-03-21T14:21:54.832Z,16.78
2019-03-21T14:24:23.447Z,16.70
2019-03-21T14:26:51.874Z,16.66
2019-03-21T14:29:20.324Z,16.70
2019-03-21T14:31:48.762Z,16.64
2019-03-21T14:34:17.299Z,16.70
2019-03-21T14:36:45.724Z,16.69
2019-03-21T14:39:14.150Z,16.82
2019-03-21T14:41:42.599Z,16.78
2019-03-21T14:44:11.014Z,16.69
2019-03-21T14:46:39.472Z,16.45
2019-03-21T14:49:07.910Z,16.31
2019-03-21T14:51:36.328Z,16.20
2019-03-21T14:54:04.877Z,16.16
2019-03-21T14:56:33.315Z,16.08
2019-03-21T14:59:01.775Z,15.93
2019-03-21T15:01:30.168Z,15.84
2019-03-21T15:03:58.614Z,15.72
2019-03-21T15:06:27.040Z,15.62
2019-03-21T15:08:55.482Z,15.61
2019-03-21T15:11:23.897Z,15.57
2019-03-21T15:13:52.319Z,15.58
2019-03-21T15:16:20.841Z,15.55
2019-03-21T15:18:49.280Z,15.55
2019-03-21T15:21:17.713Z,15.54
2019-03-21T15:23:46.181Z,15.51
2019-03-21T15:26:14.589Z,15.44
2019-03-21T15:28:43.021Z,15.38
2019-03-21T15:31:11.478Z,15.33
2019-03-21T15:33:39.915Z,15.27
2019-03-21T15:36:08.412Z,15.30
2019-03-21T15:38:36.819Z,15.26
2019-03-21T15:41:05.325Z,15.22
2019-03-21T15:43:33.728Z,15.21
2019-03-21T15:46:02.224Z,15.21
2019-03-21T15:48:30.665Z,15.20
2019-03-21T15:51:04.547Z,15.26
2019-03-21T15:53:29.404Z,15.28
2019-03-21T15:55:57.804Z,15.33
2019-03-21T15:58:26.220Z,15.32
2019-03-21T16:00:54.818Z,15.33
2019-03-21T16:03:23.275Z,15.29
2019-03-21T16:05:51.723Z,15.32
2019-03-21T16:08:20.152Z,15.28
2019-03-21T16:10:53.444Z,15.22
2019-03-21T16:13:21.856Z,15.16
2019-03-21T16:15:50.276Z,15.21
2019-03-21T16:18:18.790Z,15.26
2019-03-21T16:20:47.308Z,15.24
2019-03-21T16:23:15.697Z,15.22
2019-03-21T16:25:44.141Z,15.16
2019-03-21T16:28:12.589Z,15.08
2019-03-21T16:30:41.094Z,15.05
2019-03-21T16:33:09.575Z,15.05
2019-03-21T16:35:38.013Z,15.06
2019-03-21T16:38:06.483Z,15.07
2019-03-21T16:40:34.992Z,15.05
2019-03-21T16:43:05.559Z,15.01
2019-03-21T16:45:33.723Z,14.97
2019-03-21T16:48:02.152Z,14.92
2019-03-21T16:50:30.595Z,14.83
2019-03-21T16:52:59.146Z,14.89
2019-03-21T16:55:27.638Z,14.83
2019-03-21T16:57:56.250Z,14.79
2019-03-21T17:00:24.759Z,14.69
2019-03-21T17:02:53.169Z,14.56
2019-03-21T17:05:22.626Z,14.56
2019-03-21T17:07:51.192Z,14.58
2019-03-21T17:10:21.462Z,14.51
2019-03-21T17:12:50.019Z,14.47
2019-03-21T17:15:18.479Z,14.45
2019-03-21T17:17:46.899Z,14.37
2019-03-21T17:20:15.574Z,14.29
2019-03-21T17:22:43.966Z,14.19
2019-03-21T17:25:13.429Z,14.08
2019-03-21T17:27:41.924Z,13.93
2019-03-21T17:30:15.162Z,13.84
2019-03-21T17:32:43.588Z,13.82
2019-03-21T17:35:12.752Z,13.70
2019-03-21T17:37:41.175Z,13.58
2019-03-21T17:40:12.594Z,13.48
2019-03-21T17:42:41.075Z,13.37
2019-03-21T17:45:12.516Z,13.22
2019-03-21T17:47:40.955Z,13.12
2019-03-21T17:50:12.205Z,13.00
2019-03-21T17:52:40.639Z,12.88
2019-03-21T17:55:10.296Z,12.80
2019-03-21T17:57:38.728Z,12.74
2019-03-21T18:00:20.685Z,12.63
2019-03-21T18:02:49.184Z,12.61
2019-03-21T18:05:17.604Z,12.51
2019-03-21T18:07:46.097Z,12.41
2019-03-21T18:10:17.561Z,12.36
2019-03-21T18:12:45.980Z,12.23
2019-03-21T18:15:14.698Z,12.12
2019-03-21T18:17:43.118Z,12.01
2019-03-21T18:20:11.541Z,11.96
2019-03-21T18:22:40.216Z,11.85
2019-03-21T18:25:08.794Z,11.86
2019-03-21T18:27:37.210Z,11.79
2019-03-21T18:30:07.641Z,11.68
2019-03-21T18:32:36.123Z,11.59
2019-03-21T18:35:06.306Z,11.50
2019-03-21T18:37:34.913Z,11.38
2019-03-21T18:40:03.583Z,11.32
2019-03-21T18:42:31.980Z,11.28
2019-03-21T18:45:00.427Z,11.25
2019-03-21T18:47:29.119Z,11.18
2019-03-21T18:49:57.555Z,11.18
2019-03-21T18:52:26.058Z,11.15
2019-03-21T18:55:05.702Z,11.13
2019-03-21T18:57:25.132Z,11.05
2019-03-21T18:59:53.964Z,10.93
2019-03-21T19:02:22.398Z,10.84
2019-03-21T19:04:50.914Z,10.82
2019-03-21T19:07:19.425Z,10.75
2019-03-21T19:09:47.932Z,10.68
2019-03-21T19:12:16.345Z,10.57
2019-03-21T19:14:44.761Z,10.52
2019-03-21T19:17:13.206Z,10.44
2019-03-21T19:19:41.647Z,10.33
2019-03-21T19:22:10.187Z,10.26
2019-03-21T19:24:38.622Z,10.32
2019-03-21T19:27:07.139Z,10.37
2019-03-21T19:29:35.691Z,10.34
2019-03-21T19:32:04.214Z,10.30
2019-03-21T19:34:32.639Z,10.18
2019-03-21T19:37:01.105Z,10.11
2019-03-21T19:39:29.543Z,10.08
2019-03-21T19:41:58.044Z,10.03
2019-03-21T19:44:26.477Z,10.14
2019-03-21T19:46:54.889Z,10.19
2019-03-21T19:49:23.351Z,10.07
2019-03-21T19:51:51.746Z,10.09
2019-03-21T19:54:20.196Z,10.16
2019-03-21T19:56:48.704Z,10.11
2019-03-21T19:59:17.112Z,10.03
2019-03-21T20:01:45.544Z,9.91
2019-03-21T20:04:13.955Z,9.86
2019-03-21T20:06:42.388Z,9.81
2019-03-21T20:09:10.807Z,9.72
2019-03-21T20:11:39.301Z,9.76
2019-03-21T20:14:07.953Z,9.65
2019-03-21T20:16:36.398Z,9.48
2019-03-21T20:19:04.930Z,9.54
2019-03-21T20:21:33.345Z,9.47
2019-03-21T20:24:01.782Z,9.35
2019-03-21T20:26:30.212Z,9.29
2019-03-21T20:28:58.714Z,9.21
2019-03-21T20:31:27.140Z,9.18
2019-03-21T20:33:55.565Z,9.22
2019-03-21T20:36:24.002Z,9.16
2019-03-21T20:38:52.404Z,9.17
2019-03-21T20:41:20.931Z,9.13
2019-03-21T20:43:49.399Z,9.01
2019-03-21T20:46:17.947Z,9.00
2019-03-21T20:48:45.234Z,9.05
2019-03-21T20:51:13.716Z,9.12
2019-03-21T20:53:42.125Z,9.21
2019-03-21T20:56:10.559Z,9.28
2019-03-21T20:58:39.016Z,9.28
2019-03-21T21:01:07.503Z,9.14
2019-03-21T21:03:35.902Z,8.95
2019-03-21T21:06:04.401Z,8.92
2019-03-21T21:08:32.807Z,8.94
2019-03-21T21:11:03.359Z,9.01
2019-03-21T21:13:31.867Z,9.05
2019-03-21T21:16:00.302Z,9.07
2019-03-21T21:18:28.756Z,9.10
2019-03-21T21:20:57.154Z,8.99
2019-03-21T21:23:25.592Z,8.88
2019-03-21T21:26:04.768Z,8.96
2019-03-21T21:28:24.361Z,8.93
2019-03-21T21:30:52.782Z,8.85
2019-03-21T21:33:21.203Z,8.82
2019-03-21T21:35:49.648Z,8.66
2019-03-21T21:38:18.077Z,8.61
2019-03-21T21:40:46.510Z,8.62
2019-03-21T21:43:14.948Z,8.57
2019-03-21T21:45:43.469Z,8.54
2019-03-21T21:48:11.829Z,8.48
2019-03-21T21:50:40.330Z,8.52
2019-03-21T21:53:08.825Z,8.57
2019-03-21T21:55:37.249Z,8.56
2019-03-21T21:58:05.668Z,8.44
2019-03-21T22:00:34.087Z,8.38
2019-03-21T22:03:02.595Z,8.36
2019-03-21T22:05:31.003Z,8.40
2019-03-21T22:07:59.499Z,8.35
2019-03-21T22:10:29.531Z,8.28
2019-03-21T22:12:58.215Z,8.27
2019-03-21T22:15:26.655Z,8.19
2019-03-21T22:17:55.118Z,8.09
2019-03-21T22:20:23.522Z,8.00
2019-03-21T22:22:51.947Z,7.99
2019-03-21T22:25:20.441Z,7.97
2019-03-21T22:27:48.872Z,7.99
2019-03-21T22:30:19.577Z,7.93
2019-03-21T22:32:48.071Z,7.94
2019-03-21T22:35:16.571Z,7.79
2019-03-21T22:37:44.994Z,7.75
2019-03-21T22:40:15.665Z,7.77
2019-03-21T22:42:44.081Z,7.82
2019-03-21T22:45:17.581Z,7.88
2019-03-21T22:47:45.958Z,7.85
2019-03-21T22:50:16.659Z,7.91
2019-03-21T22:52:45.728Z,7.88
2019-03-21T22:55:14.707Z,7.81
2019-03-21T22:57:43.159Z,7.82
2019-03-21T23:00:22.396Z,7.89
2019-03-21T23:02:50.930Z,7.98
2019-03-21T23:05:20.580Z,8.01
2019-03-21T23:07:49.072Z,7.89
2019-03-21T23:10:20.605Z,7.75
2019-03-21T23:12:49.110Z,7.69
2019-03-21T23:15:17.595Z,7.67
2019-03-21T23:17:46.063Z,7.69
2019-03-21T23:20:15.535Z,7.65
2019-03-21T23:22:44.163Z,7.62
2019-03-21T23:25:16.314Z,7.59
2019-03-21T23:27:43.817Z,7.50
2019-03-21T23:30:17.152Z,7.44
2019-03-21T23:32:45.702Z,7.42
2019-03-21T23:35:15.050Z,7.45
2019-03-21T23:37:43.512Z,7.53
2019-03-21T23:40:15.898Z,7.54
2019-03-21T23:42:44.483Z,7.50
2019-03-21T23:45:14.566Z,7.52
2019-03-21T23:47:43.133Z,7.58
2019-03-21T23:50:15.024Z,7.57
2019-03-21T23:52:43.667Z,7.58
2019-03-21T23:55:13.236Z,7.54
2019-03-21T23:57:41.739Z,7.55
